createdAt,value
2023-02-21T00:00:54.652Z,54.45
2023-02-21T00:03:39.937Z,47.55
2023-02-21T00:06:27.375Z,43.83
2023-02-21T00:09:12.982Z,47.47
2023-02-21T00:12:02.662Z,42.80
2023-02-21T00:14:48.098Z,41.22
2023-02-21T00:17:33.999Z,44.20
2023-02-21T00:20:19.259Z,38.97
2023-02-21T00:23:05.258Z,41.55
2023-02-21T00:25:50.696Z,40.50
2023-02-21T00:28:35.989Z,40.78
2023-02-21T00:31:21.392Z,40.78
2023-02-21T00:34:07.281Z,36.78
2023-02-21T00:36:52.799Z,44.03
2023-02-21T00:39:38.200Z,41.75
2023-02-21T00:42:23.553Z,43.55
2023-02-21T00:45:08.748Z,35.95
2023-02-21T00:47:54.308Z,46.40
2023-02-21T00:50:39.811Z,39.05
2023-02-21T00:53:25.792Z,37.63
2023-02-21T00:56:11.178Z,42.55
2023-02-21T00:58:56.757Z,50.03
2023-02-21T01:01:41.971Z,43.60
2023-02-21T01:04:27.626Z,38.60
2023-02-21T01:07:12.860Z,39.47
2023-02-21T01:09:58.442Z,42.50
2023-02-21T01:12:43.813Z,45.53
2023-02-21T01:15:29.244Z,42.78
2023-02-21T01:18:14.640Z,39.70
2023-02-21T01:20:59.934Z,41.92
2023-02-21T01:23:45.165Z,40.60
2023-02-21T01:26:31.241Z,38.08
2023-02-21T01:29:16.600Z,38.17
2023-02-21T01:32:01.950Z,40.08
2023-02-21T01:34:47.304Z,39.80
2023-02-21T01:37:33.059Z,41.50
2023-02-21T01:40:18.553Z,46.58
2023-02-21T01:43:04.265Z,39.92
2023-02-21T01:45:55.795Z,41.30
2023-02-21T01:48:42.748Z,37.90
2023-02-21T01:51:30.671Z,38.15
2023-02-21T01:54:16.315Z,37.75
2023-02-21T01:57:02.084Z,39.28
2023-02-21T01:59:47.922Z,46.83
2023-02-21T02:03:07.266Z,41.03
2023-02-21T02:05:53.854Z,39.10
2023-02-21T02:08:44.398Z,42.95
2023-02-21T02:12:09.278Z,38.70
2023-02-21T02:14:48.146Z,39.60
2023-02-21T02:17:21.120Z,38.28
2023-02-21T02:19:47.912Z,41.63
2023-02-21T02:22:33.075Z,39.83
2023-02-21T02:25:30.827Z,41.58
2023-02-21T02:28:09.881Z,42.17
2023-02-21T02:30:53.311Z,39.50
2023-02-21T02:33:57.979Z,43.03
2023-02-21T02:36:51.462Z,36.85
2023-02-21T02:39:48.728Z,40.63
2023-02-21T02:42:18.611Z,42.05
2023-02-21T02:45:01.609Z,39.35
2023-02-21T02:47:40.591Z,41.65
2023-02-21T02:50:09.638Z,40.70
2023-02-21T02:52:36.862Z,41.55
2023-02-21T02:55:21.044Z,41.85
2023-02-21T02:57:48.922Z,34.97
2023-02-21T03:00:16.674Z,38.65
2023-02-21T03:03:07.882Z,39.85
2023-02-21T03:05:43.672Z,38.70
2023-02-21T03:08:23.080Z,39.15
2023-02-21T03:11:18.656Z,36.10
2023-02-21T03:14:07.320Z,36.97
2023-02-21T03:16:42.518Z,38.83
2023-02-21T03:19:17.636Z,42.28
2023-02-21T03:21:49.804Z,38.63
2023-02-21T03:24:18.932Z,41.35
2023-02-21T03:26:49.687Z,37.30
2023-02-21T03:29:17.245Z,40.25
2023-02-21T03:31:54.156Z,41.67
2023-02-21T03:34:21.929Z,35.13
2023-02-21T03:36:49.624Z,38.85
2023-02-21T03:39:16.472Z,37.08
2023-02-21T03:41:43.319Z,36.60
2023-02-21T03:44:10.156Z,37.65
2023-02-21T03:46:38.683Z,44.70
2023-02-21T03:49:06.736Z,39.67
2023-02-21T03:51:33.578Z,36.15
2023-02-21T03:54:00.412Z,34.40
2023-02-21T03:56:36.668Z,38.70
2023-02-21T03:59:07.250Z,33.90
2023-02-21T04:01:34.049Z,37.35
2023-02-21T04:04:00.938Z,33.40
2023-02-21T04:06:27.848Z,39.95
2023-02-21T04:08:54.676Z,34.88
2023-02-21T04:11:22.697Z,37.78
2023-02-21T04:13:49.578Z,35.80
2023-02-21T04:16:16.432Z,34.30
2023-02-21T04:18:43.298Z,38.17
2023-02-21T04:21:10.211Z,39.92
2023-02-21T04:23:36.998Z,36.70
2023-02-21T04:26:03.864Z,38.30
2023-02-21T04:28:30.774Z,38.47
2023-02-21T04:30:57.629Z,37.00
2023-02-21T04:33:24.507Z,41.58
2023-02-21T04:35:51.372Z,44.03
2023-02-21T04:38:18.369Z,40.92
2023-02-21T04:40:45.238Z,39.47
2023-02-21T04:43:12.085Z,37.83
2023-02-21T04:45:38.952Z,40.25
2023-02-21T04:48:06.125Z,38.47
2023-02-21T04:50:32.969Z,39.65
2023-02-21T04:52:59.873Z,50.72
2023-02-21T04:55:26.734Z,38.67
2023-02-21T04:57:53.535Z,38.78
2023-02-21T05:00:20.443Z,41.05
2023-02-21T05:02:48.108Z,44.13
2023-02-21T05:05:15.042Z,42.28
2023-02-21T05:07:42.871Z,41.42
2023-02-21T05:10:10.948Z,43.60
2023-02-21T05:12:41.757Z,39.90
2023-02-21T05:15:10.006Z,40.90
2023-02-21T05:17:36.884Z,39.13
2023-02-21T05:20:05.137Z,40.47
2023-02-21T05:22:32.030Z,44.97
2023-02-21T05:24:58.849Z,41.75
2023-02-21T05:27:25.768Z,40.65
2023-02-21T05:29:53.828Z,43.58
2023-02-21T05:32:22.326Z,39.85
2023-02-21T05:34:49.278Z,41.83
2023-02-21T05:37:17.491Z,45.53
2023-02-21T05:39:44.329Z,42.47
2023-02-21T05:42:11.439Z,45.00
2023-02-21T05:44:38.324Z,42.70
2023-02-21T05:47:07.230Z,44.50
2023-02-21T05:49:34.168Z,44.15
2023-02-21T05:52:00.989Z,45.92
2023-02-21T05:54:27.855Z,44.55
2023-02-21T05:56:54.692Z,46.42
2023-02-21T05:59:21.951Z,44.38
2023-02-21T06:01:49.636Z,43.40
2023-02-21T06:04:17.618Z,46.28
2023-02-21T06:06:45.320Z,49.10
2023-02-21T06:09:12.730Z,50.83
2023-02-21T06:11:40.534Z,45.28
2023-02-21T06:14:14.113Z,48.50
2023-02-21T06:16:40.991Z,48.42
2023-02-21T06:19:09.659Z,53.13
2023-02-21T06:21:36.760Z,53.07
2023-02-21T06:24:03.786Z,49.67
2023-02-21T06:26:30.808Z,56.40
2023-02-21T06:28:57.666Z,55.15
2023-02-21T06:31:24.908Z,53.47
2023-02-21T06:33:52.260Z,57.40
2023-02-21T06:36:22.772Z,53.65
2023-02-21T06:38:52.830Z,55.13
2023-02-21T06:41:24.635Z,57.30
2023-02-21T06:43:56.277Z,53.20
2023-02-21T06:46:25.798Z,58.47
2023-02-21T06:51:20.086Z,60.30
2023-02-21T06:53:50.440Z,61.00
2023-02-21T06:56:17.376Z,55.53
2023-02-21T06:58:44.325Z,54.80
2023-02-21T07:01:11.221Z,62.25
2023-02-21T07:03:43.256Z,58.58
2023-02-21T07:06:10.477Z,52.72
2023-02-21T07:08:37.401Z,55.17
2023-02-21T07:11:05.797Z,56.30
2023-02-21T07:13:33.630Z,55.58
2023-02-21T07:16:01.780Z,59.38
2023-02-21T07:18:28.721Z,61.90
2023-02-21T07:20:55.776Z,64.78
2023-02-21T07:23:22.560Z,62.33
2023-02-21T07:25:49.512Z,56.72
2023-02-21T07:28:16.595Z,61.30
2023-02-21T07:30:43.539Z,66.55
2023-02-21T07:33:10.402Z,56.85
2023-02-21T07:35:37.275Z,61.72
2023-02-21T07:38:04.121Z,65.53
2023-02-21T07:40:30.993Z,63.63
2023-02-21T07:42:57.920Z,70.85
2023-02-21T07:45:24.997Z,66.15
2023-02-21T07:47:53.338Z,62.05
2023-02-21T07:50:20.378Z,66.03
2023-02-21T07:52:47.262Z,65.50
2023-02-21T07:55:15.098Z,67.25
2023-02-21T07:57:41.919Z,63.83
2023-02-21T08:00:09.686Z,62.25
2023-02-21T08:02:36.538Z,64.72
2023-02-21T08:05:05.867Z,61.10
2023-02-21T08:07:32.760Z,66.70
2023-02-21T08:09:59.716Z,62.35
2023-02-21T08:12:26.781Z,65.80
2023-02-21T08:14:53.653Z,62.13
2023-02-21T08:17:20.607Z,63.67
2023-02-21T08:19:47.639Z,60.45
2023-02-21T08:22:14.526Z,66.05
2023-02-21T08:24:41.422Z,61.45
2023-02-21T08:27:08.296Z,57.17
2023-02-21T08:29:35.128Z,57.22
2023-02-21T08:32:02.261Z,65.88
2023-02-21T08:34:31.956Z,56.10
2023-02-21T08:36:58.830Z,58.35
2023-02-21T08:39:29.959Z,58.25
2023-02-21T08:41:57.133Z,60.22
2023-02-21T08:44:23.999Z,56.97
2023-02-21T08:46:50.942Z,60.80
2023-02-21T08:49:18.151Z,58.92
2023-02-21T08:51:45.049Z,55.72
2023-02-21T08:54:11.971Z,61.45
2023-02-21T08:56:38.894Z,57.50
2023-02-21T08:59:05.972Z,58.85
2023-02-21T09:01:34.960Z,60.58
2023-02-21T09:04:05.957Z,57.40
2023-02-21T09:06:33.054Z,61.17
2023-02-21T09:09:00.569Z,54.90
2023-02-21T09:11:27.416Z,58.97
2023-02-21T09:13:55.189Z,63.72
2023-02-21T09:16:23.660Z,63.97
2023-02-21T09:18:59.171Z,63.25
2023-02-21T09:21:26.834Z,58.83
2023-02-21T09:23:55.705Z,62.97
2023-02-21T09:26:24.260Z,62.25
2023-02-21T09:28:52.547Z,62.23
2023-02-21T09:31:20.702Z,58.42
2023-02-21T09:33:47.679Z,62.67
2023-02-21T09:36:14.822Z,64.40
2023-02-21T09:38:42.049Z,61.92
2023-02-21T09:41:13.685Z,61.55
2023-02-21T09:43:47.702Z,61.85
2023-02-21T09:46:42.841Z,68.93
2023-02-21T09:49:37.342Z,66.50
2023-02-21T09:52:04.445Z,59.33
2023-02-21T09:54:39.158Z,58.83
2023-02-21T09:57:11.845Z,67.97
2023-02-21T09:59:38.713Z,60.85
2023-02-21T10:02:14.675Z,61.38
2023-02-21T10:05:03.415Z,60.72
2023-02-21T10:07:49.624Z,62.97
2023-02-21T10:10:48.677Z,60.40
2023-02-21T10:13:27.074Z,59.13
2023-02-21T10:16:02.242Z,63.72
2023-02-21T10:18:40.919Z,60.70
2023-02-21T10:21:33.423Z,67.65
2023-02-21T10:24:05.182Z,66.35
2023-02-21T10:26:38.115Z,59.22
2023-02-21T10:29:09.142Z,63.72
2023-02-21T10:31:38.858Z,62.75
2023-02-21T10:34:10.127Z,61.33
2023-02-21T10:36:36.926Z,62.83
2023-02-21T10:39:10.660Z,66.70
2023-02-21T10:41:41.387Z,57.00
2023-02-21T10:44:18.559Z,64.20
2023-02-21T10:47:13.935Z,59.58
2023-02-21T10:49:54.196Z,58.60
2023-02-21T10:55:31.436Z,62.85
2023-02-21T10:58:06.926Z,58.28
2023-02-21T11:00:48.105Z,63.10
2023-02-21T11:03:18.035Z,56.70
2023-02-21T11:05:58.514Z,55.65
2023-02-21T11:08:38.989Z,57.72
2023-02-21T11:11:06.368Z,51.40
2023-02-21T11:13:36.176Z,49.83
2023-02-21T11:16:17.491Z,54.58
2023-02-21T11:18:44.620Z,53.30
2023-02-21T11:21:19.724Z,59.50
2023-02-21T11:23:59.050Z,50.50
2023-02-21T11:26:27.746Z,51.70
2023-02-21T11:28:54.574Z,47.90
2023-02-21T11:31:31.188Z,49.47
2023-02-21T11:34:05.597Z,54.65
2023-02-21T11:36:38.811Z,53.85
2023-02-21T11:39:23.556Z,48.60
2023-02-21T11:42:31.040Z,50.90
2023-02-21T11:45:20.569Z,47.75
2023-02-21T11:47:58.671Z,48.45
2023-02-21T11:50:34.197Z,46.65
2023-02-21T11:53:22.452Z,46.50
2023-02-21T11:56:28.252Z,46.25
2023-02-21T11:59:23.846Z,47.13
2023-02-21T12:02:26.215Z,47.13
2023-02-21T12:05:10.231Z,52.72
2023-02-21T12:07:47.827Z,53.75
2023-02-21T12:10:39.500Z,45.63
2023-02-21T12:13:25.129Z,49.50
2023-02-21T12:16:16.374Z,51.03
2023-02-21T12:18:43.255Z,45.50
2023-02-21T12:21:36.057Z,46.33
2023-02-21T12:24:26.087Z,46.17
2023-02-21T12:27:24.731Z,44.67
2023-02-21T12:30:10.357Z,46.50
2023-02-21T12:32:40.483Z,48.05
2023-02-21T12:35:33.902Z,46.47
2023-02-21T12:38:07.426Z,44.60
2023-02-21T12:40:34.191Z,48.95
2023-02-21T12:43:08.859Z,44.47
2023-02-21T12:45:43.842Z,47.00
2023-02-21T12:48:25.609Z,41.88
2023-02-21T12:50:55.361Z,42.03
2023-02-21T12:53:47.794Z,44.67
2023-02-21T12:56:24.096Z,45.55
2023-02-21T12:59:03.347Z,44.85
2023-02-21T13:01:32.666Z,54.35
2023-02-21T13:04:18.118Z,46.38
2023-02-21T13:07:03.842Z,47.20
2023-02-21T13:09:51.098Z,48.60
2023-02-21T13:12:52.646Z,52.53
2023-02-21T13:15:22.319Z,45.85
2023-02-21T13:18:09.672Z,48.88
2023-02-21T13:20:42.608Z,51.38
2023-02-21T13:23:51.280Z,43.97
2023-02-21T13:26:31.137Z,43.72
2023-02-21T13:28:59.071Z,44.13
2023-02-21T13:31:39.331Z,50.50
2023-02-21T13:34:09.842Z,50.42
2023-02-21T13:36:43.169Z,47.60
2023-02-21T13:39:10.037Z,43.33
2023-02-21T13:41:40.966Z,44.17
2023-02-21T13:44:27.046Z,45.58
2023-02-21T13:46:54.735Z,45.08
2023-02-21T13:49:40.214Z,46.65
2023-02-21T13:52:28.885Z,48.90
2023-02-21T13:55:17.906Z,47.13
2023-02-21T13:57:58.226Z,46.05
2023-02-21T14:03:13.912Z,45.33
2023-02-21T14:05:52.926Z,44.53
2023-02-21T14:08:32.108Z,47.28
2023-02-21T14:11:16.788Z,50.67
2023-02-21T14:13:54.814Z,44.58
2023-02-21T14:16:50.287Z,51.10
2023-02-21T14:19:26.156Z,41.80
2023-02-21T14:22:15.459Z,45.00
2023-02-21T14:25:03.889Z,47.22
2023-02-21T14:27:33.857Z,48.83
2023-02-21T14:30:13.197Z,50.65
2023-02-21T14:32:55.300Z,57.80
2023-02-21T14:35:36.313Z,64.78
2023-02-21T14:38:04.815Z,75.20
2023-02-21T14:41:13.032Z,58.03
2023-02-21T14:43:45.256Z,71.68
2023-02-21T14:46:24.032Z,66.43
2023-02-21T14:49:23.179Z,68.60
2023-02-21T14:52:08.625Z,73.82
2023-02-21T14:54:50.816Z,66.75
2023-02-21T14:57:39.508Z,67.40
2023-02-21T15:00:30.598Z,70.88
2023-02-21T15:05:50.763Z,83.57
2023-02-21T15:08:20.784Z,79.43
2023-02-21T15:10:49.310Z,90.68
2023-02-21T15:13:30.142Z,88.97
2023-02-21T15:16:04.611Z,85.25
2023-02-21T15:18:33.507Z,81.35
2023-02-21T15:21:06.282Z,96.53
2023-02-21T15:23:34.568Z,112.65
2023-02-21T15:26:21.886Z,88.53
2023-02-21T15:29:16.105Z,102.38
2023-02-21T15:31:48.191Z,94.07
2023-02-21T15:34:20.319Z,92.40
2023-02-21T15:36:50.930Z,102.80
2023-02-21T15:39:33.930Z,96.88
2023-02-21T15:42:05.559Z,98.30
2023-02-21T15:44:38.991Z,98.65
2023-02-21T15:47:14.100Z,104.30
2023-02-21T15:49:45.190Z,74.80
2023-02-21T15:52:53.655Z,92.57
2023-02-21T15:55:20.666Z,84.78
2023-02-21T15:57:57.595Z,77.72
2023-02-21T16:00:35.470Z,86.10
2023-02-21T16:03:30.507Z,87.53
2023-02-21T16:06:12.761Z,92.00
2023-02-21T16:08:51.045Z,96.50
2023-02-21T16:11:19.860Z,75.80
2023-02-21T16:13:46.922Z,79.88
2023-02-21T16:16:13.987Z,74.63
2023-02-21T16:18:41.209Z,74.05
2023-02-21T16:21:21.548Z,92.70
2023-02-21T16:26:16.838Z,76.60
2023-02-21T16:28:45.772Z,77.82
2023-02-21T16:31:25.170Z,73.28
2023-02-21T16:33:52.159Z,83.60
2023-02-21T16:36:27.493Z,82.15
2023-02-21T16:38:58.916Z,84.15
2023-02-21T16:41:26.652Z,80.40
2023-02-21T16:43:53.772Z,84.82
2023-02-21T16:46:29.102Z,73.57
2023-02-21T16:48:57.075Z,83.57
2023-02-21T16:51:23.962Z,74.57
2023-02-21T16:53:50.795Z,73.65
2023-02-21T16:56:18.041Z,80.97
2023-02-21T16:58:50.391Z,59.85
2023-02-21T17:01:28.046Z,65.55
2023-02-21T17:03:55.062Z,77.80
2023-02-21T17:06:24.519Z,76.07
2023-02-21T17:11:18.828Z,85.90
2023-02-21T17:13:45.772Z,79.88
2023-02-21T17:16:12.739Z,84.53
2023-02-21T17:18:39.628Z,78.00
2023-02-21T17:21:06.688Z,82.38
2023-02-21T17:23:33.550Z,79.38
2023-02-21T17:26:00.470Z,76.47
2023-02-21T17:28:27.451Z,69.22
2023-02-21T17:30:54.640Z,82.78
2023-02-21T17:33:22.028Z,58.05
2023-02-21T17:35:50.014Z,66.40
2023-02-21T17:38:17.176Z,63.03
2023-02-21T17:40:46.425Z,83.20
2023-02-21T17:43:16.122Z,54.45
2023-02-21T17:45:43.034Z,85.72
2023-02-21T17:48:09.906Z,72.43
2023-02-21T17:50:36.794Z,73.03
2023-02-21T17:53:03.724Z,62.42
2023-02-21T17:55:32.325Z,81.45
2023-02-21T17:57:59.593Z,79.63
2023-02-21T18:00:28.565Z,79.05
2023-02-21T18:02:56.650Z,68.88
2023-02-21T18:05:24.210Z,72.22
2023-02-21T18:07:53.037Z,52.28
2023-02-21T18:10:23.120Z,88.75
2023-02-21T18:12:51.579Z,52.03
2023-02-21T18:15:20.775Z,70.38
2023-02-21T18:17:47.689Z,76.95
2023-02-21T18:20:18.009Z,72.32
2023-02-21T18:22:44.941Z,68.00
2023-02-21T18:25:15.359Z,61.90
2023-02-21T18:27:42.527Z,60.53
2023-02-21T18:30:10.230Z,73.40
2023-02-21T18:32:37.181Z,70.47
2023-02-21T18:35:04.389Z,77.20
2023-02-21T18:37:31.210Z,71.00
2023-02-21T18:39:58.083Z,72.90
2023-02-21T18:42:25.286Z,70.28
2023-02-21T18:44:52.418Z,80.35
2023-02-21T18:47:19.831Z,68.80
2023-02-21T18:49:47.978Z,76.38
2023-02-21T18:52:16.353Z,53.28
2023-02-21T18:54:48.891Z,82.60
2023-02-21T18:57:18.101Z,75.30
2023-02-21T18:59:45.108Z,71.45
2023-02-21T19:02:15.031Z,66.55
2023-02-21T19:04:43.538Z,73.25
2023-02-21T19:07:13.428Z,73.85
2023-02-21T19:09:40.732Z,73.57
2023-02-21T19:12:10.362Z,74.25
2023-02-21T19:14:38.147Z,71.07
2023-02-21T19:17:07.782Z,72.45
2023-02-21T19:19:35.625Z,78.22
2023-02-21T19:22:02.538Z,71.20
2023-02-21T19:24:29.435Z,73.30
2023-02-21T19:26:56.398Z,80.18
2023-02-21T19:29:23.373Z,77.72
2023-02-21T19:31:50.451Z,66.60
2023-02-21T19:34:17.407Z,51.55
2023-02-21T19:36:44.343Z,48.45
2023-02-21T19:39:12.056Z,72.32
2023-02-21T19:41:40.347Z,54.00
2023-02-21T19:44:08.416Z,79.75
2023-02-21T19:46:35.636Z,71.28
2023-02-21T19:49:03.096Z,42.47
2023-02-21T19:51:32.338Z,75.13
2023-02-21T19:54:00.207Z,67.57
2023-02-21T19:56:28.201Z,65.82
2023-02-21T19:58:55.451Z,53.40
2023-02-21T20:01:23.108Z,64.68
2023-02-21T20:03:50.651Z,68.15
2023-02-21T20:06:18.716Z,51.40
2023-02-21T20:08:48.831Z,69.45
2023-02-21T20:11:20.598Z,48.88
2023-02-21T20:13:47.996Z,44.25
2023-02-21T20:16:17.061Z,68.20
2023-02-21T20:18:44.750Z,62.13
2023-02-21T20:21:19.552Z,38.60
2023-02-21T20:23:46.657Z,74.47
2023-02-21T20:26:14.030Z,42.38
2023-02-21T20:28:40.905Z,52.03
2023-02-21T20:31:11.318Z,56.00
2023-02-21T20:33:38.922Z,57.85
2023-02-21T20:36:06.868Z,60.20
2023-02-21T20:38:34.461Z,58.38
2023-02-21T20:41:01.845Z,42.47
2023-02-21T20:43:29.383Z,32.88
2023-02-21T20:45:56.496Z,36.58
2023-02-21T20:48:25.546Z,42.15
2023-02-21T20:50:53.793Z,37.72
2023-02-21T20:53:21.237Z,39.40
2023-02-21T20:55:48.265Z,36.53
2023-02-21T20:58:15.145Z,36.75
2023-02-21T21:00:42.845Z,32.42
2023-02-21T21:03:12.053Z,44.75
2023-02-21T21:05:38.935Z,43.38
2023-02-21T21:08:06.395Z,39.08
2023-02-21T21:10:33.198Z,41.50
2023-02-21T21:13:00.175Z,41.72
2023-02-21T21:15:27.391Z,42.28
2023-02-21T21:17:54.957Z,44.90
2023-02-21T21:20:24.312Z,30.02
2023-02-21T21:22:51.467Z,32.78
2023-02-21T21:25:18.682Z,31.30
2023-02-21T21:27:45.870Z,32.08
2023-02-21T21:30:18.288Z,38.97
2023-02-21T21:32:45.487Z,31.98
2023-02-21T21:35:14.764Z,32.40
2023-02-21T21:37:41.883Z,42.47
2023-02-21T21:40:16.153Z,33.53
2023-02-21T21:42:50.130Z,40.42
2023-02-21T21:45:19.366Z,37.45
2023-02-21T21:47:48.476Z,27.13
2023-02-21T21:50:16.349Z,36.40
2023-02-21T21:52:45.588Z,36.17
2023-02-21T21:55:17.755Z,37.97
2023-02-21T21:57:44.581Z,32.50
2023-02-21T22:00:21.729Z,26.50
2023-02-21T22:02:50.462Z,34.65
2023-02-21T22:05:17.554Z,34.85
2023-02-21T22:07:44.585Z,48.33
2023-02-21T22:10:11.929Z,36.47
2023-02-21T22:12:40.159Z,43.70
2023-02-21T22:15:10.819Z,43.60
2023-02-21T22:17:37.889Z,30.92
2023-02-21T22:20:17.357Z,46.15
2023-02-21T22:22:48.969Z,46.45
2023-02-21T22:25:20.989Z,46.65
2023-02-21T22:27:48.694Z,49.05
2023-02-21T22:30:18.446Z,29.52
2023-02-21T22:32:47.085Z,47.13
2023-02-21T22:35:19.137Z,33.00
2023-02-21T22:37:54.564Z,30.25
2023-02-21T22:40:24.527Z,28.90
2023-02-21T22:42:52.143Z,41.22
2023-02-21T22:45:21.861Z,39.17
2023-02-21T22:47:50.344Z,40.38
2023-02-21T22:50:20.381Z,46.58
2023-02-21T22:52:56.446Z,25.65
2023-02-21T22:55:25.128Z,23.77
2023-02-21T22:57:53.677Z,29.55
2023-02-21T23:00:25.254Z,25.20
2023-02-21T23:02:52.766Z,24.25
2023-02-21T23:05:21.774Z,31.95
2023-02-21T23:07:51.268Z,34.85
2023-02-21T23:12:52.719Z,40.65
2023-02-21T23:15:21.062Z,50.30
2023-02-21T23:17:49.290Z,26.55
2023-02-21T23:20:22.217Z,36.58
2023-02-21T23:22:51.428Z,52.22
2023-02-21T23:25:26.959Z,52.40
2023-02-21T23:27:56.618Z,37.65
2023-02-21T23:30:38.812Z,53.10
2023-02-21T23:33:14.536Z,73.95
2023-02-21T23:35:51.255Z,34.03
2023-02-21T23:38:22.684Z,30.17
2023-02-21T23:40:57.616Z,31.17
2023-02-21T23:43:29.261Z,37.88
2023-02-21T23:45:57.713Z,32.38
2023-02-21T23:48:24.650Z,38.28
2023-02-21T23:50:51.588Z,47.78
2023-02-21T23:53:21.129Z,33.55
2023-02-21T23:58:19.337Z,41.33
